sensor_id;sensor_type;location;lat;lon;timestamp;P1;durP1;ratioP1;P2;durP2;ratioP2
22248;SDS011;67538;52.180;5.646;2023-12-20T00:02:10;23.67;;;4.10;;
22248;SDS011;67538;52.180;5.646;2023-12-20T00:04:37;22.83;;;4.10;;
22248;SDS011;67538;52.180;5.646;2023-12-20T00:07:04;20.43;;;4.20;;
22248;SDS011;67538;52.180;5.646;2023-12-20T00:09:31;24.97;;;4.80;;
22248;SDS011;67538;52.180;5.646;2023-12-20T00:11:58;20.87;;;3.73;;
22248;SDS011;67538;52.180;5.646;2023-12-20T00:14:27;29.50;;;4.20;;
22248;SDS011;67538;52.180;5.646;2023-12-20T00:16:54;23.63;;;3.77;;
22248;SDS011;67538;52.180;5.646;2023-12-20T00:19:21;19.77;;;3.40;;
22248;SDS011;67538;52.180;5.646;2023-12-20T00:21:49;24.63;;;3.97;;
22248;SDS011;67538;52.180;5.646;2023-12-20T00:24:16;32.93;;;4.60;;
22248;SDS011;67538;52.180;5.646;2023-12-20T00:26:43;18.17;;;3.67;;
22248;SDS011;67538;52.180;5.646;2023-12-20T00:29:10;20.80;;;3.63;;
22248;SDS011;67538;52.180;5.646;2023-12-20T00:31:38;28.33;;;4.20;;
22248;SDS011;67538;52.180;5.646;2023-12-20T00:34:05;38.03;;;5.00;;
22248;SDS011;67538;52.180;5.646;2023-12-20T00:36:32;31.23;;;3.90;;
22248;SDS011;67538;52.180;5.646;2023-12-20T00:38:59;33.30;;;4.20;;
22248;SDS011;67538;52.180;5.646;2023-12-20T00:41:27;37.37;;;4.50;;
22248;SDS011;67538;52.180;5.646;2023-12-20T00:43:54;26.87;;;4.13;;
22248;SDS011;67538;52.180;5.646;2023-12-20T00:46:21;12.20;;;3.60;;
22248;SDS011;67538;52.180;5.646;2023-12-20T00:48:50;18.13;;;3.30;;
22248;SDS011;67538;52.180;5.646;2023-12-20T00:51:17;17.43;;;3.57;;
22248;SDS011;67538;52.180;5.646;2023-12-20T00:53:44;24.17;;;4.13;;
22248;SDS011;67538;52.180;5.646;2023-12-20T00:56:14;32.43;;;4.17;;
22248;SDS011;67538;52.180;5.646;2023-12-20T00:58:41;35.17;;;4.07;;
22248;SDS011;67538;52.180;5.646;2023-12-20T01:01:08;23.20;;;5.07;;
22248;SDS011;67538;52.180;5.646;2023-12-20T01:03:35;31.20;;;4.57;;
22248;SDS011;67538;52.180;5.646;2023-12-20T01:06:04;27.40;;;4.07;;
22248;SDS011;67538;52.180;5.646;2023-12-20T01:08:31;32.10;;;4.10;;
22248;SDS011;67538;52.180;5.646;2023-12-20T01:10:59;33.00;;;4.37;;
22248;SDS011;67538;52.180;5.646;2023-12-20T01:13:26;32.10;;;3.80;;
22248;SDS011;67538;52.180;5.646;2023-12-20T01:15:53;31.03;;;4.53;;
22248;SDS011;67538;52.180;5.646;2023-12-20T01:18:21;37.70;;;4.63;;
22248;SDS011;67538;52.180;5.646;2023-12-20T01:20:48;26.10;;;4.77;;
22248;SDS011;67538;52.180;5.646;2023-12-20T01:23:16;33.83;;;4.60;;
22248;SDS011;67538;52.180;5.646;2023-12-20T01:25:43;25.43;;;4.83;;
22248;SDS011;67538;52.180;5.646;2023-12-20T01:28:10;29.87;;;4.63;;
22248;SDS011;67538;52.180;5.646;2023-12-20T01:30:38;30.93;;;5.70;;
22248;SDS011;67538;52.180;5.646;2023-12-20T01:33:05;22.70;;;5.13;;
22248;SDS011;67538;52.180;5.646;2023-12-20T01:35:32;25.90;;;5.23;;
22248;SDS011;67538;52.180;5.646;2023-12-20T01:37:59;24.40;;;4.93;;
22248;SDS011;67538;52.180;5.646;2023-12-20T01:40:27;38.90;;;5.20;;
22248;SDS011;67538;52.180;5.646;2023-12-20T01:42:57;26.27;;;4.70;;
22248;SDS011;67538;52.180;5.646;2023-12-20T01:45:25;27.23;;;5.13;;
22248;SDS011;67538;52.180;5.646;2023-12-20T01:47:52;28.83;;;5.00;;
22248;SDS011;67538;52.180;5.646;2023-12-20T01:50:21;21.63;;;5.00;;
22248;SDS011;67538;52.180;5.646;2023-12-20T01:52:48;29.97;;;5.13;;
22248;SDS011;67538;52.180;5.646;2023-12-20T01:55:17;28.03;;;4.40;;
22248;SDS011;67538;52.180;5.646;2023-12-20T01:57:46;30.50;;;4.27;;
22248;SDS011;67538;52.180;5.646;2023-12-20T02:00:14;31.27;;;4.27;;
22248;SDS011;67538;52.180;5.646;2023-12-20T02:02:41;32.67;;;4.07;;
22248;SDS011;67538;52.180;5.646;2023-12-20T02:05:11;23.07;;;4.53;;
22248;SDS011;67538;52.180;5.646;2023-12-20T02:07:38;33.00;;;4.77;;
22248;SDS011;67538;52.180;5.646;2023-12-20T02:10:06;28.13;;;4.17;;
22248;SDS011;67538;52.180;5.646;2023-12-20T02:12:33;18.40;;;4.13;;
22248;SDS011;67538;52.180;5.646;2023-12-20T02:15:02;18.83;;;4.07;;
22248;SDS011;67538;52.180;5.646;2023-12-20T02:17:29;26.53;;;4.87;;
22248;SDS011;67538;52.180;5.646;2023-12-20T02:19:57;37.10;;;4.60;;
22248;SDS011;67538;52.180;5.646;2023-12-20T02:22:26;28.13;;;5.00;;
22248;SDS011;67538;52.180;5.646;2023-12-20T02:24:53;27.57;;;4.90;;
22248;SDS011;67538;52.180;5.646;2023-12-20T02:27:20;25.37;;;4.53;;
22248;SDS011;67538;52.180;5.646;2023-12-20T02:29:49;48.60;;;5.23;;
22248;SDS011;67538;52.180;5.646;2023-12-20T02:32:17;23.67;;;4.90;;
22248;SDS011;67538;52.180;5.646;2023-12-20T02:34:46;22.60;;;4.33;;
22248;SDS011;67538;52.180;5.646;2023-12-20T02:37:14;34.33;;;5.17;;
22248;SDS011;67538;52.180;5.646;2023-12-20T02:39:42;23.73;;;4.33;;
22248;SDS011;67538;52.180;5.646;2023-12-20T02:42:10;27.07;;;4.70;;
22248;SDS011;67538;52.180;5.646;2023-12-20T02:44:37;26.53;;;4.73;;
22248;SDS011;67538;52.180;5.646;2023-12-20T02:47:04;27.90;;;4.57;;
22248;SDS011;67538;52.180;5.646;2023-12-20T02:49:31;26.90;;;4.60;;
22248;SDS011;67538;52.180;5.646;2023-12-20T02:51:58;38.17;;;5.67;;
22248;SDS011;67538;52.180;5.646;2023-12-20T02:54:25;27.03;;;4.50;;
22248;SDS011;67538;52.180;5.646;2023-12-20T02:56:53;38.57;;;5.03;;
22248;SDS011;67538;52.180;5.646;2023-12-20T02:59:21;33.33;;;5.10;;
22248;SDS011;67538;52.180;5.646;2023-12-20T03:01:48;30.93;;;4.97;;
22248;SDS011;67538;52.180;5.646;2023-12-20T03:04:15;37.83;;;4.70;;
22248;SDS011;67538;52.180;5.646;2023-12-20T03:06:42;34.40;;;4.97;;
22248;SDS011;67538;52.180;5.646;2023-12-20T03:09:09;31.80;;;5.43;;
22248;SDS011;67538;52.180;5.646;2023-12-20T03:11:36;25.77;;;5.27;;
22248;SDS011;67538;52.180;5.646;2023-12-20T03:14:04;31.77;;;5.80;;
22248;SDS011;67538;52.180;5.646;2023-12-20T03:16:31;22.60;;;4.77;;
22248;SDS011;67538;52.180;5.646;2023-12-20T03:18:58;28.53;;;4.60;;
22248;SDS011;67538;52.180;5.646;2023-12-20T03:21:25;22.83;;;4.40;;
22248;SDS011;67538;52.180;5.646;2023-12-20T03:23:52;26.77;;;4.97;;
22248;SDS011;67538;52.180;5.646;2023-12-20T03:26:19;24.73;;;5.00;;
22248;SDS011;67538;52.180;5.646;2023-12-20T03:28:47;33.60;;;4.80;;
22248;SDS011;67538;52.180;5.646;2023-12-20T03:31:16;30.40;;;4.47;;
22248;SDS011;67538;52.180;5.646;2023-12-20T03:33:43;20.60;;;4.33;;
22248;SDS011;67538;52.180;5.646;2023-12-20T03:36:10;29.67;;;5.23;;
22248;SDS011;67538;52.180;5.646;2023-12-20T03:38:37;30.07;;;4.90;;
22248;SDS011;67538;52.180;5.646;2023-12-20T03:41:04;31.33;;;5.10;;
22248;SDS011;67538;52.180;5.646;2023-12-20T03:43:31;31.50;;;4.70;;
22248;SDS011;67538;52.180;5.646;2023-12-20T03:45:58;27.43;;;4.73;;
22248;SDS011;67538;52.180;5.646;2023-12-20T03:48:27;28.87;;;5.83;;
22248;SDS011;67538;52.180;5.646;2023-12-20T03:50:54;27.37;;;5.33;;
22248;SDS011;67538;52.180;5.646;2023-12-20T03:53:21;36.40;;;5.07;;
22248;SDS011;67538;52.180;5.646;2023-12-20T03:55:48;29.83;;;4.90;;
22248;SDS011;67538;52.180;5.646;2023-12-20T03:58:15;43.53;;;5.90;;
22248;SDS011;67538;52.180;5.646;2023-12-20T04:00:42;34.07;;;5.00;;
22248;SDS011;67538;52.180;5.646;2023-12-20T04:03:09;43.70;;;5.37;;
22248;SDS011;67538;52.180;5.646;2023-12-20T04:05:39;29.40;;;4.53;;
22248;SDS011;67538;52.180;5.646;2023-12-20T04:08:06;25.77;;;4.70;;
22248;SDS011;67538;52.180;5.646;2023-12-20T04:10:34;28.00;;;5.63;;
22248;SDS011;67538;52.180;5.646;2023-12-20T04:13:02;30.00;;;4.73;;
22248;SDS011;67538;52.180;5.646;2023-12-20T04:15:29;27.33;;;4.90;;
22248;SDS011;67538;52.180;5.646;2023-12-20T04:17:57;34.73;;;4.47;;
22248;SDS011;67538;52.180;5.646;2023-12-20T04:20:24;31.97;;;4.27;;
22248;SDS011;67538;52.180;5.646;2023-12-20T04:22:52;34.53;;;4.83;;
22248;SDS011;67538;52.180;5.646;2023-12-20T04:25:19;34.23;;;4.70;;
22248;SDS011;67538;52.180;5.646;2023-12-20T04:27:46;33.10;;;4.77;;
22248;SDS011;67538;52.180;5.646;2023-12-20T04:30:14;32.40;;;4.83;;
22248;SDS011;67538;52.180;5.646;2023-12-20T04:32:41;26.43;;;4.33;;
22248;SDS011;67538;52.180;5.646;2023-12-20T04:35:08;28.77;;;4.43;;
22248;SDS011;67538;52.180;5.646;2023-12-20T04:37:35;25.07;;;4.43;;
22248;SDS011;67538;52.180;5.646;2023-12-20T04:40:04;30.00;;;4.67;;
22248;SDS011;67538;52.180;5.646;2023-12-20T04:42:32;28.87;;;4.73;;
22248;SDS011;67538;52.180;5.646;2023-12-20T04:44:59;28.23;;;4.97;;
22248;SDS011;67538;52.180;5.646;2023-12-20T04:47:26;24.20;;;4.00;;
22248;SDS011;67538;52.180;5.646;2023-12-20T04:49:54;19.10;;;4.10;;
22248;SDS011;67538;52.180;5.646;2023-12-20T04:52:21;29.13;;;4.37;;
22248;SDS011;67538;52.180;5.646;2023-12-20T04:54:48;29.50;;;5.10;;
22248;SDS011;67538;52.180;5.646;2023-12-20T04:57:17;40.00;;;4.40;;
22248;SDS011;67538;52.180;5.646;2023-12-20T04:59:44;33.10;;;4.27;;
22248;SDS011;67538;52.180;5.646;2023-12-20T05:02:11;24.83;;;4.00;;
22248;SDS011;67538;52.180;5.646;2023-12-20T05:04:38;24.80;;;4.03;;
22248;SDS011;67538;52.180;5.646;2023-12-20T05:07:05;35.00;;;4.47;;
22248;SDS011;67538;52.180;5.646;2023-12-20T05:09:32;36.20;;;4.90;;
22248;SDS011;67538;52.180;5.646;2023-12-20T05:11:59;38.80;;;5.20;;
22248;SDS011;67538;52.180;5.646;2023-12-20T05:14:28;28.53;;;4.27;;
22248;SDS011;67538;52.180;5.646;2023-12-20T05:16:55;39.80;;;4.70;;
22248;SDS011;67538;52.180;5.646;2023-12-20T05:19:22;38.30;;;4.90;;
22248;SDS011;67538;52.180;5.646;2023-12-20T05:21:49;38.83;;;5.57;;
22248;SDS011;67538;52.180;5.646;2023-12-20T05:24:17;21.77;;;4.10;;
22248;SDS011;67538;52.180;5.646;2023-12-20T05:26:44;31.67;;;4.33;;
22248;SDS011;67538;52.180;5.646;2023-12-20T05:29:11;27.87;;;4.20;;
22248;SDS011;67538;52.180;5.646;2023-12-20T05:31:39;31.33;;;4.37;;
22248;SDS011;67538;52.180;5.646;2023-12-20T05:34:06;30.87;;;3.97;;
22248;SDS011;67538;52.180;5.646;2023-12-20T05:36:34;29.67;;;4.17;;
22248;SDS011;67538;52.180;5.646;2023-12-20T05:39:02;24.60;;;4.20;;
22248;SDS011;67538;52.180;5.646;2023-12-20T05:41:30;26.57;;;4.30;;
22248;SDS011;67538;52.180;5.646;2023-12-20T05:43:57;25.70;;;4.50;;
22248;SDS011;67538;52.180;5.646;2023-12-20T05:46:24;24.60;;;4.67;;
22248;SDS011;67538;52.180;5.646;2023-12-20T05:48:54;25.50;;;4.13;;
22248;SDS011;67538;52.180;5.646;2023-12-20T05:51:21;18.93;;;3.47;;
22248;SDS011;67538;52.180;5.646;2023-12-20T05:53:48;27.27;;;4.97;;
22248;SDS011;67538;52.180;5.646;2023-12-20T05:56:16;27.73;;;4.53;;
22248;SDS011;67538;52.180;5.646;2023-12-20T05:58:43;33.53;;;5.23;;
22248;SDS011;67538;52.180;5.646;2023-12-20T06:01:10;25.73;;;4.43;;
22248;SDS011;67538;52.180;5.646;2023-12-20T06:03:37;30.07;;;4.50;;
22248;SDS011;67538;52.180;5.646;2023-12-20T06:06:09;36.40;;;4.73;;
22248;SDS011;67538;52.180;5.646;2023-12-20T06:08:37;25.77;;;3.80;;
22248;SDS011;67538;52.180;5.646;2023-12-20T06:11:05;22.67;;;4.00;;
22248;SDS011;67538;52.180;5.646;2023-12-20T06:13:32;27.43;;;3.53;;
22248;SDS011;67538;52.180;5.646;2023-12-20T06:15:59;25.90;;;4.43;;
22248;SDS011;67538;52.180;5.646;2023-12-20T06:18:26;21.50;;;3.97;;
22248;SDS011;67538;52.180;5.646;2023-12-20T06:20:53;24.80;;;3.97;;
22248;SDS011;67538;52.180;5.646;2023-12-20T06:23:22;35.77;;;4.67;;
22248;SDS011;67538;52.180;5.646;2023-12-20T06:25:49;17.40;;;3.83;;
22248;SDS011;67538;52.180;5.646;2023-12-20T06:28:16;26.80;;;4.00;;
22248;SDS011;67538;52.180;5.646;2023-12-20T06:30:43;34.47;;;4.63;;
22248;SDS011;67538;52.180;5.646;2023-12-20T06:33:12;24.07;;;4.37;;
22248;SDS011;67538;52.180;5.646;2023-12-20T06:35:39;26.73;;;4.20;;
22248;SDS011;67538;52.180;5.646;2023-12-20T06:38:06;30.90;;;4.00;;
22248;SDS011;67538;52.180;5.646;2023-12-20T06:40:35;28.23;;;4.13;;
22248;SDS011;67538;52.180;5.646;2023-12-20T06:43:03;21.93;;;4.03;;
22248;SDS011;67538;52.180;5.646;2023-12-20T06:45:31;23.43;;;4.40;;
22248;SDS011;67538;52.180;5.646;2023-12-20T06:47:58;25.83;;;4.07;;
22248;SDS011;67538;52.180;5.646;2023-12-20T06:50:25;26.00;;;3.87;;
22248;SDS011;67538;52.180;5.646;2023-12-20T06:52:53;23.07;;;4.13;;
22248;SDS011;67538;52.180;5.646;2023-12-20T06:55:20;29.47;;;4.07;;
22248;SDS011;67538;52.180;5.646;2023-12-20T06:57:48;24.33;;;3.90;;
22248;SDS011;67538;52.180;5.646;2023-12-20T07:00:16;24.17;;;4.30;;
22248;SDS011;67538;52.180;5.646;2023-12-20T07:02:45;24.27;;;4.63;;
22248;SDS011;67538;52.180;5.646;2023-12-20T07:05:12;25.43;;;4.40;;
22248;SDS011;67538;52.180;5.646;2023-12-20T07:07:42;31.93;;;4.90;;
22248;SDS011;67538;52.180;5.646;2023-12-20T07:10:09;21.57;;;4.10;;
22248;SDS011;67538;52.180;5.646;2023-12-20T07:12:36;24.57;;;4.40;;
22248;SDS011;67538;52.180;5.646;2023-12-20T07:15:05;32.03;;;4.40;;
22248;SDS011;67538;52.180;5.646;2023-12-20T07:17:33;31.27;;;4.27;;
22248;SDS011;67538;52.180;5.646;2023-12-20T07:20:00;19.80;;;4.07;;
22248;SDS011;67538;52.180;5.646;2023-12-20T07:22:29;29.07;;;3.90;;
22248;SDS011;67538;52.180;5.646;2023-12-20T07:24:56;25.77;;;4.20;;
22248;SDS011;67538;52.180;5.646;2023-12-20T07:27:23;20.40;;;4.07;;
22248;SDS011;67538;52.180;5.646;2023-12-20T07:29:50;22.40;;;4.07;;
22248;SDS011;67538;52.180;5.646;2023-12-20T07:32:19;21.77;;;3.73;;
22248;SDS011;67538;52.180;5.646;2023-12-20T07:34:46;21.40;;;3.93;;
22248;SDS011;67538;52.180;5.646;2023-12-20T07:37:13;24.07;;;4.63;;
22248;SDS011;67538;52.180;5.646;2023-12-20T07:39:40;24.63;;;4.60;;
22248;SDS011;67538;52.180;5.646;2023-12-20T07:42:07;26.07;;;4.17;;
22248;SDS011;67538;52.180;5.646;2023-12-20T07:44:35;30.77;;;4.63;;
22248;SDS011;67538;52.180;5.646;2023-12-20T07:47:02;27.13;;;4.33;;
22248;SDS011;67538;52.180;5.646;2023-12-20T07:49:31;22.63;;;4.20;;
22248;SDS011;67538;52.180;5.646;2023-12-20T07:51:58;23.37;;;4.17;;
22248;SDS011;67538;52.180;5.646;2023-12-20T07:54:25;26.63;;;4.47;;
22248;SDS011;67538;52.180;5.646;2023-12-20T07:56:52;26.37;;;4.00;;
22248;SDS011;67538;52.180;5.646;2023-12-20T07:59:19;27.93;;;4.03;;
22248;SDS011;67538;52.180;5.646;2023-12-20T08:01:46;25.20;;;4.27;;
22248;SDS011;67538;52.180;5.646;2023-12-20T08:04:13;19.97;;;3.67;;
22248;SDS011;67538;52.180;5.646;2023-12-20T08:06:42;20.77;;;3.73;;
22248;SDS011;67538;52.180;5.646;2023-12-20T08:09:09;25.50;;;4.63;;
22248;SDS011;67538;52.180;5.646;2023-12-20T08:11:36;26.90;;;4.07;;
22248;SDS011;67538;52.180;5.646;2023-12-20T08:14:03;30.20;;;4.90;;
22248;SDS011;67538;52.180;5.646;2023-12-20T08:16:30;23.87;;;3.80;;
22248;SDS011;67538;52.180;5.646;2023-12-20T08:18:57;22.30;;;4.33;;
22248;SDS011;67538;52.180;5.646;2023-12-20T08:21:24;31.27;;;4.87;;
22248;SDS011;67538;52.180;5.646;2023-12-20T08:23:53;19.80;;;4.00;;
22248;SDS011;67538;52.180;5.646;2023-12-20T08:26:20;27.97;;;4.37;;
22248;SDS011;67538;52.180;5.646;2023-12-20T08:28:48;29.23;;;4.20;;
22248;SDS011;67538;52.180;5.646;2023-12-20T08:31:15;21.83;;;4.27;;
22248;SDS011;67538;52.180;5.646;2023-12-20T08:33:43;28.83;;;4.07;;
22248;SDS011;67538;52.180;5.646;2023-12-20T08:36:10;25.47;;;4.73;;
22248;SDS011;67538;52.180;5.646;2023-12-20T08:38:38;30.33;;;4.67;;
22248;SDS011;67538;52.180;5.646;2023-12-20T08:41:06;22.27;;;4.47;;
22248;SDS011;67538;52.180;5.646;2023-12-20T08:43:34;29.13;;;4.00;;
22248;SDS011;67538;52.180;5.646;2023-12-20T08:46:01;35.63;;;4.60;;
22248;SDS011;67538;52.180;5.646;2023-12-20T08:48:28;29.13;;;4.97;;
22248;SDS011;67538;52.180;5.646;2023-12-20T08:50:55;17.20;;;3.83;;
22248;SDS011;67538;52.180;5.646;2023-12-20T08:53:23;38.37;;;4.27;;
22248;SDS011;67538;52.180;5.646;2023-12-20T08:55:50;29.97;;;4.47;;
22248;SDS011;67538;52.180;5.646;2023-12-20T08:58:18;34.50;;;4.70;;
22248;SDS011;67538;52.180;5.646;2023-12-20T09:00:45;18.17;;;3.70;;
22248;SDS011;67538;52.180;5.646;2023-12-20T09:03:12;20.17;;;4.87;;
22248;SDS011;67538;52.180;5.646;2023-12-20T09:05:39;29.23;;;5.47;;
22248;SDS011;67538;52.180;5.646;2023-12-20T09:08:07;19.37;;;4.60;;
22248;SDS011;67538;52.180;5.646;2023-12-20T09:10:35;29.73;;;4.87;;
22248;SDS011;67538;52.180;5.646;2023-12-20T09:13:03;26.77;;;4.23;;
22248;SDS011;67538;52.180;5.646;2023-12-20T09:15:32;22.90;;;4.33;;
22248;SDS011;67538;52.180;5.646;2023-12-20T09:17:59;17.53;;;3.27;;
22248;SDS011;67538;52.180;5.646;2023-12-20T09:20:26;20.17;;;3.97;;
22248;SDS011;67538;52.180;5.646;2023-12-20T09:22:53;36.23;;;4.57;;
22248;SDS011;67538;52.180;5.646;2023-12-20T09:25:20;35.27;;;4.83;;
22248;SDS011;67538;52.180;5.646;2023-12-20T09:27:48;23.67;;;4.00;;
22248;SDS011;67538;52.180;5.646;2023-12-20T09:30:15;22.97;;;4.33;;
22248;SDS011;67538;52.180;5.646;2023-12-20T09:32:44;31.30;;;4.93;;
22248;SDS011;67538;52.180;5.646;2023-12-20T09:35:12;26.93;;;4.00;;
22248;SDS011;67538;52.180;5.646;2023-12-20T09:37:40;25.37;;;3.87;;
22248;SDS011;67538;52.180;5.646;2023-12-20T09:40:10;25.47;;;4.07;;
22248;SDS011;67538;52.180;5.646;2023-12-20T09:42:48;32.07;;;4.83;;
22248;SDS011;67538;52.180;5.646;2023-12-20T09:45:20;26.20;;;4.17;;
22248;SDS011;67538;52.180;5.646;2023-12-20T09:47:49;34.67;;;4.23;;
22248;SDS011;67538;52.180;5.646;2023-12-20T09:50:17;19.00;;;3.67;;
22248;SDS011;67538;52.180;5.646;2023-12-20T09:52:46;39.90;;;5.10;;
22248;SDS011;67538;52.180;5.646;2023-12-20T09:55:17;23.00;;;3.60;;
22248;SDS011;67538;52.180;5.646;2023-12-20T09:57:44;24.47;;;4.00;;
22248;SDS011;67538;52.180;5.646;2023-12-20T10:00:12;29.70;;;5.03;;
22248;SDS011;67538;52.180;5.646;2023-12-20T10:02:42;27.47;;;3.90;;
22248;SDS011;67538;52.180;5.646;2023-12-20T10:05:17;25.07;;;4.07;;
22248;SDS011;67538;52.180;5.646;2023-12-20T10:07:45;27.10;;;4.10;;
22248;SDS011;67538;52.180;5.646;2023-12-20T10:10:13;25.90;;;3.70;;
22248;SDS011;67538;52.180;5.646;2023-12-20T10:12:40;33.10;;;4.43;;
22248;SDS011;67538;52.180;5.646;2023-12-20T10:15:08;16.67;;;4.10;;
22248;SDS011;67538;52.180;5.646;2023-12-20T10:17:36;26.63;;;4.70;;
22248;SDS011;67538;52.180;5.646;2023-12-20T10:20:04;21.00;;;4.37;;
22248;SDS011;67538;52.180;5.646;2023-12-20T10:22:36;26.13;;;3.90;;
22248;SDS011;67538;52.180;5.646;2023-12-20T10:25:04;20.23;;;4.07;;
22248;SDS011;67538;52.180;5.646;2023-12-20T10:27:32;28.07;;;3.60;;
22248;SDS011;67538;52.180;5.646;2023-12-20T10:29:59;23.90;;;4.07;;
22248;SDS011;67538;52.180;5.646;2023-12-20T10:32:27;21.80;;;4.07;;
22248;SDS011;67538;52.180;5.646;2023-12-20T10:34:54;22.77;;;3.43;;
22248;SDS011;67538;52.180;5.646;2023-12-20T10:37:22;28.80;;;3.83;;
22248;SDS011;67538;52.180;5.646;2023-12-20T10:39:51;25.20;;;3.97;;
22248;SDS011;67538;52.180;5.646;2023-12-20T10:42:21;22.70;;;3.67;;
22248;SDS011;67538;52.180;5.646;2023-12-20T10:44:48;27.00;;;4.30;;
22248;SDS011;67538;52.180;5.646;2023-12-20T10:47:18;25.03;;;3.97;;
22248;SDS011;67538;52.180;5.646;2023-12-20T10:49:46;22.03;;;3.67;;
22248;SDS011;67538;52.180;5.646;2023-12-20T10:52:13;25.73;;;3.70;;
22248;SDS011;67538;52.180;5.646;2023-12-20T10:54:40;29.50;;;3.83;;
22248;SDS011;67538;52.180;5.646;2023-12-20T10:57:09;27.13;;;3.87;;
22248;SDS011;67538;52.180;5.646;2023-12-20T10:59:37;13.63;;;3.47;;
22248;SDS011;67538;52.180;5.646;2023-12-20T11:02:05;30.07;;;4.30;;
22248;SDS011;67538;52.180;5.646;2023-12-20T11:04:36;25.07;;;3.77;;
22248;SDS011;67538;52.180;5.646;2023-12-20T11:07:17;19.60;;;3.70;;
22248;SDS011;67538;52.180;5.646;2023-12-20T11:09:51;22.23;;;3.63;;
22248;SDS011;67538;52.180;5.646;2023-12-20T11:12:28;23.23;;;3.87;;
22248;SDS011;67538;52.180;5.646;2023-12-20T11:15:02;17.43;;;3.37;;
22248;SDS011;67538;52.180;5.646;2023-12-20T11:17:31;16.17;;;3.10;;
22248;SDS011;67538;52.180;5.646;2023-12-20T11:20:08;23.33;;;4.60;;
22248;SDS011;67538;52.180;5.646;2023-12-20T11:22:37;24.13;;;3.27;;
22248;SDS011;67538;52.180;5.646;2023-12-20T11:25:07;24.87;;;3.67;;
22248;SDS011;67538;52.180;5.646;2023-12-20T11:27:40;19.57;;;3.87;;
22248;SDS011;67538;52.180;5.646;2023-12-20T11:30:09;18.47;;;3.70;;
22248;SDS011;67538;52.180;5.646;2023-12-20T11:32:37;14.63;;;3.00;;
22248;SDS011;67538;52.180;5.646;2023-12-20T11:35:18;24.13;;;4.27;;
22248;SDS011;67538;52.180;5.646;2023-12-20T11:37:46;24.37;;;3.60;;
22248;SDS011;67538;52.180;5.646;2023-12-20T11:40:13;19.27;;;3.70;;
22248;SDS011;67538;52.180;5.646;2023-12-20T11:42:44;20.37;;;3.80;;
22248;SDS011;67538;52.180;5.646;2023-12-20T11:45:15;19.87;;;3.07;;
22248;SDS011;67538;52.180;5.646;2023-12-20T11:47:45;25.33;;;3.23;;
22248;SDS011;67538;52.180;5.646;2023-12-20T11:50:14;18.20;;;3.27;;
22248;SDS011;67538;52.180;5.646;2023-12-20T11:52:42;19.43;;;3.37;;
22248;SDS011;67538;52.180;5.646;2023-12-20T11:55:09;15.27;;;3.37;;
22248;SDS011;67538;52.180;5.646;2023-12-20T11:57:36;17.20;;;3.00;;
22248;SDS011;67538;52.180;5.646;2023-12-20T12:00:05;20.83;;;3.50;;
22248;SDS011;67538;52.180;5.646;2023-12-20T12:02:33;16.80;;;3.60;;
22248;SDS011;67538;52.180;5.646;2023-12-20T12:05:00;18.13;;;3.20;;
22248;SDS011;67538;52.180;5.646;2023-12-20T12:07:30;12.90;;;2.73;;
22248;SDS011;67538;52.180;5.646;2023-12-20T12:09:57;14.67;;;3.23;;
22248;SDS011;67538;52.180;5.646;2023-12-20T12:12:24;28.23;;;3.70;;
22248;SDS011;67538;52.180;5.646;2023-12-20T12:14:52;13.33;;;3.33;;
22248;SDS011;67538;52.180;5.646;2023-12-20T12:17:23;18.10;;;3.60;;
22248;SDS011;67538;52.180;5.646;2023-12-20T12:19:51;18.67;;;3.40;;
22248;SDS011;67538;52.180;5.646;2023-12-20T12:22:27;20.70;;;3.53;;
22248;SDS011;67538;52.180;5.646;2023-12-20T12:24:58;18.67;;;3.43;;
22248;SDS011;67538;52.180;5.646;2023-12-20T12:27:27;15.50;;;3.03;;
22248;SDS011;67538;52.180;5.646;2023-12-20T12:30:00;18.20;;;3.73;;
22248;SDS011;67538;52.180;5.646;2023-12-20T12:32:30;19.10;;;3.23;;
22248;SDS011;67538;52.180;5.646;2023-12-20T12:34:57;19.07;;;3.33;;
22248;SDS011;67538;52.180;5.646;2023-12-20T12:37:24;17.40;;;3.20;;
22248;SDS011;67538;52.180;5.646;2023-12-20T12:39:53;11.03;;;3.10;;
22248;SDS011;67538;52.180;5.646;2023-12-20T12:42:20;21.70;;;3.43;;
22248;SDS011;67538;52.180;5.646;2023-12-20T12:44:51;17.20;;;3.77;;
22248;SDS011;67538;52.180;5.646;2023-12-20T12:47:18;24.27;;;3.47;;
22248;SDS011;67538;52.180;5.646;2023-12-20T12:49:46;16.57;;;3.30;;
22248;SDS011;67538;52.180;5.646;2023-12-20T12:52:15;15.27;;;3.30;;
22248;SDS011;67538;52.180;5.646;2023-12-20T12:54:42;29.20;;;3.73;;
22248;SDS011;67538;52.180;5.646;2023-12-20T12:57:10;19.87;;;3.23;;
22248;SDS011;67538;52.180;5.646;2023-12-20T12:59:37;19.50;;;4.10;;
22248;SDS011;67538;52.180;5.646;2023-12-20T13:02:04;9.63;;;2.83;;
22248;SDS011;67538;52.180;5.646;2023-12-20T13:04:31;16.13;;;3.00;;
22248;SDS011;67538;52.180;5.646;2023-12-20T13:07:00;23.07;;;3.73;;
22248;SDS011;67538;52.180;5.646;2023-12-20T13:09:27;20.70;;;3.10;;
22248;SDS011;67538;52.180;5.646;2023-12-20T13:11:54;17.60;;;3.77;;
22248;SDS011;67538;52.180;5.646;2023-12-20T13:14:22;20.37;;;3.20;;
22248;SDS011;67538;52.180;5.646;2023-12-20T13:16:49;16.27;;;3.57;;
22248;SDS011;67538;52.180;5.646;2023-12-20T13:19:16;21.97;;;3.80;;
22248;SDS011;67538;52.180;5.646;2023-12-20T13:21:43;15.33;;;2.90;;
22248;SDS011;67538;52.180;5.646;2023-12-20T13:24:12;16.37;;;3.27;;
22248;SDS011;67538;52.180;5.646;2023-12-20T13:26:39;15.90;;;3.53;;
22248;SDS011;67538;52.180;5.646;2023-12-20T13:29:06;18.60;;;3.33;;
22248;SDS011;67538;52.180;5.646;2023-12-20T13:31:33;13.77;;;3.10;;
22248;SDS011;67538;52.180;5.646;2023-12-20T13:34:01;21.10;;;3.53;;
22248;SDS011;67538;52.180;5.646;2023-12-20T13:36:28;14.47;;;3.30;;
22248;SDS011;67538;52.180;5.646;2023-12-20T13:38:55;17.87;;;3.67;;
22248;SDS011;67538;52.180;5.646;2023-12-20T13:41:24;22.30;;;3.87;;
22248;SDS011;67538;52.180;5.646;2023-12-20T13:43:51;19.87;;;3.60;;
22248;SDS011;67538;52.180;5.646;2023-12-20T13:46:19;16.87;;;3.30;;
22248;SDS011;67538;52.180;5.646;2023-12-20T13:48:46;20.83;;;3.63;;
22248;SDS011;67538;52.180;5.646;2023-12-20T13:51:13;18.37;;;3.30;;
22248;SDS011;67538;52.180;5.646;2023-12-20T13:53:40;21.47;;;3.73;;
22248;SDS011;67538;52.180;5.646;2023-12-20T13:56:07;22.30;;;3.93;;
22248;SDS011;67538;52.180;5.646;2023-12-20T13:58:37;22.57;;;4.27;;
22248;SDS011;67538;52.180;5.646;2023-12-20T14:01:05;14.17;;;3.67;;
22248;SDS011;67538;52.180;5.646;2023-12-20T14:03:32;22.37;;;3.70;;
22248;SDS011;67538;52.180;5.646;2023-12-20T14:05:59;25.73;;;3.30;;
22248;SDS011;67538;52.180;5.646;2023-12-20T14:08:26;18.73;;;3.80;;
22248;SDS011;67538;52.180;5.646;2023-12-20T14:10:53;18.93;;;3.33;;
22248;SDS011;67538;52.180;5.646;2023-12-20T14:13:20;21.10;;;3.47;;
22248;SDS011;67538;52.180;5.646;2023-12-20T14:15:49;20.23;;;3.70;;
22248;SDS011;67538;52.180;5.646;2023-12-20T14:18:16;19.07;;;4.07;;
22248;SDS011;67538;52.180;5.646;2023-12-20T14:20:43;26.70;;;4.27;;
22248;SDS011;67538;52.180;5.646;2023-12-20T14:23:12;13.47;;;3.17;;
22248;SDS011;67538;52.180;5.646;2023-12-20T14:25:40;17.10;;;3.20;;
22248;SDS011;67538;52.180;5.646;2023-12-20T14:28:08;20.97;;;3.97;;
22248;SDS011;67538;52.180;5.646;2023-12-20T14:30:35;12.90;;;3.50;;
22248;SDS011;67538;52.180;5.646;2023-12-20T14:33:04;18.27;;;3.17;;
22248;SDS011;67538;52.180;5.646;2023-12-20T14:35:31;21.87;;;3.23;;
22248;SDS011;67538;52.180;5.646;2023-12-20T14:37:59;22.77;;;3.77;;